KHPT/HPT METAR and TAF weather

Enter ICAO airport designator
Station Type Date Time Source
KHPT METAR 2019/12/08 06:55 UTC NOAA

KHPT 080655Z AUTO 20016G22KT 10SM CLR 02/M01 A2983 RMK AO2


Station Type Date Time Source
KHPT Decoded METAR 2019/12/08 06:55 UTC NOAA

Station name not available
Dec 08, 2019 - 01:55 AM EST / 2019.12.08 0655 UTC
Wind: from the SSW (200 degrees) at 18 MPH (16 KT) gusting to 25 MPH (22 KT):0
Visibility: 10 mile(s):0
Sky conditions: clear
Temperature: 35 F (2 C)
Windchill: 24 F (-4 C):1
Dew Point: 30 F (-1 C)
Relative Humidity: 80%
Pressure (altimeter): 29.83 in. Hg (1010 hPa)
ob: KHPT 080655Z AUTO 20016G22KT 10SM CLR 02/M01 A2983 RMK AO2
cycle: 7

Station Type Date Time Source
KHPT TAF UTC NOAA

Error!

Example: see airport list